sensor_id;sensor_type;location;lat;lon;timestamp;pressure;altitude;pressure_sealevel;temperature;humidity
25526;BME280;13424;48.424;11.258;2023-06-14T00:01:27;95152.56;;;17.80;51.80
25526;BME280;13424;48.424;11.258;2023-06-14T00:03:52;95145.94;;;17.72;48.70
25526;BME280;13424;48.424;11.258;2023-06-14T00:06:19;95154.06;;;17.67;48.79
25526;BME280;13424;48.424;11.258;2023-06-14T00:08:45;95152.78;;;17.65;48.70
25526;BME280;13424;48.424;11.258;2023-06-14T00:11:11;95155.69;;;17.87;48.56
25526;BME280;13424;48.424;11.258;2023-06-14T00:13:36;95151.28;;;17.91;50.57
25526;BME280;13424;48.424;11.258;2023-06-14T00:16:02;95154.34;;;17.71;49.37
25526;BME280;13424;48.424;11.258;2023-06-14T00:18:35;95158.44;;;17.82;50.33
25526;BME280;13424;48.424;11.258;2023-06-14T00:21:02;95148.00;;;17.94;50.45
25526;BME280;13424;48.424;11.258;2023-06-14T00:23:29;95146.72;;;18.05;50.35
25526;BME280;13424;48.424;11.258;2023-06-14T00:25:55;95148.41;;;18.01;49.61
25526;BME280;13424;48.424;11.258;2023-06-14T00:28:21;95147.38;;;17.83;48.87
25526;BME280;13424;48.424;11.258;2023-06-14T00:30:47;95150.66;;;17.80;50.76
25526;BME280;13424;48.424;11.258;2023-06-14T00:33:13;95150.53;;;17.53;50.44
25526;BME280;13424;48.424;11.258;2023-06-14T00:35:39;95147.03;;;17.52;49.57
25526;BME280;13424;48.424;11.258;2023-06-14T00:38:05;95144.97;;;17.30;52.58
25526;BME280;13424;48.424;11.258;2023-06-14T00:40:30;95142.75;;;17.14;54.02
25526;BME280;13424;48.424;11.258;2023-06-14T00:42:56;95143.56;;;16.95;53.31
25526;BME280;13424;48.424;11.258;2023-06-14T00:45:22;95151.63;;;16.53;53.71
25526;BME280;13424;48.424;11.258;2023-06-14T00:47:48;95140.50;;;16.83;55.34
25526;BME280;13424;48.424;11.258;2023-06-14T00:50:16;95140.41;;;16.69;55.11
25526;BME280;13424;48.424;11.258;2023-06-14T00:52:42;95140.41;;;16.45;55.09
25526;BME280;13424;48.424;11.258;2023-06-14T00:55:08;95140.16;;;16.18;55.85
25526;BME280;13424;48.424;11.258;2023-06-14T00:57:34;95146.50;;;16.03;56.99
25526;BME280;13424;48.424;11.258;2023-06-14T01:00:03;95137.63;;;16.03;56.30
25526;BME280;13424;48.424;11.258;2023-06-14T01:03:14;95145.19;;;16.01;57.89
25526;BME280;13424;48.424;11.258;2023-06-14T01:05:45;95146.78;;;16.02;55.71
25526;BME280;13424;48.424;11.258;2023-06-14T01:08:34;95144.00;;;16.12;55.29
25526;BME280;13424;48.424;11.258;2023-06-14T01:11:10;95139.28;;;15.99;57.31
25526;BME280;13424;48.424;11.258;2023-06-14T01:13:40;95143.63;;;15.95;56.90
25526;BME280;13424;48.424;11.258;2023-06-14T01:16:45;95133.34;;;16.02;56.66
25526;BME280;13424;48.424;11.258;2023-06-14T01:19:12;95142.53;;;15.96;56.61
25526;BME280;13424;48.424;11.258;2023-06-14T01:21:40;95137.91;;;16.01;57.56
25526;BME280;13424;48.424;11.258;2023-06-14T01:24:09;95139.25;;;16.04;57.21
25526;BME280;13424;48.424;11.258;2023-06-14T01:26:36;95136.25;;;15.81;56.75
25526;BME280;13424;48.424;11.258;2023-06-14T01:29:03;95135.56;;;15.60;56.18
25526;BME280;13424;48.424;11.258;2023-06-14T01:31:30;95133.31;;;15.78;56.15
25526;BME280;13424;48.424;11.258;2023-06-14T01:34:10;95134.69;;;15.75;57.55
25526;BME280;13424;48.424;11.258;2023-06-14T01:36:36;95140.03;;;15.80;57.52
25526;BME280;13424;48.424;11.258;2023-06-14T01:39:05;95126.66;;;15.70;56.96
25526;BME280;13424;48.424;11.258;2023-06-14T01:41:31;95128.69;;;15.49;57.83
25526;BME280;13424;48.424;11.258;2023-06-14T01:43:58;95131.84;;;15.61;57.06
25526;BME280;13424;48.424;11.258;2023-06-14T01:46:24;95127.81;;;15.25;57.69
25526;BME280;13424;48.424;11.258;2023-06-14T01:48:50;95127.25;;;15.28;58.74
25526;BME280;13424;48.424;11.258;2023-06-14T01:51:16;95119.78;;;15.20;57.04
25526;BME280;13424;48.424;11.258;2023-06-14T01:53:42;95125.94;;;15.54;57.19
25526;BME280;13424;48.424;11.258;2023-06-14T01:56:09;95132.69;;;15.52;58.81
25526;BME280;13424;48.424;11.258;2023-06-14T01:58:35;95121.28;;;15.36;58.72
25526;BME280;13424;48.424;11.258;2023-06-14T02:04:31;95127.63;;;15.45;58.95
25526;BME280;13424;48.424;11.258;2023-06-14T02:06:57;95123.84;;;15.51;57.76
25526;BME280;13424;48.424;11.258;2023-06-14T02:09:23;95124.56;;;15.62;56.98
25526;BME280;13424;48.424;11.258;2023-06-14T02:11:50;95121.03;;;15.67;56.11
25526;BME280;13424;48.424;11.258;2023-06-14T02:17:46;95119.63;;;15.74;57.03
25526;BME280;13424;48.424;11.258;2023-06-14T02:20:17;95121.63;;;16.16;54.80
25526;BME280;13424;48.424;11.258;2023-06-14T02:22:45;95130.94;;;16.24;53.82
25526;BME280;13424;48.424;11.258;2023-06-14T02:25:11;95125.41;;;16.39;54.18
25526;BME280;13424;48.424;11.258;2023-06-14T02:27:36;95128.94;;;16.11;54.88
25526;BME280;13424;48.424;11.258;2023-06-14T02:30:03;95125.72;;;16.09;55.93
25526;BME280;13424;48.424;11.258;2023-06-14T02:32:32;95129.59;;;15.74;56.04
25526;BME280;13424;48.424;11.258;2023-06-14T02:35:55;95132.19;;;15.50;56.04
25526;BME280;13424;48.424;11.258;2023-06-14T02:38:21;95130.94;;;15.71;57.77
25526;BME280;13424;48.424;11.258;2023-06-14T02:40:48;95133.13;;;15.69;57.79
25526;BME280;13424;48.424;11.258;2023-06-14T02:43:13;95135.56;;;15.60;58.92
25526;BME280;13424;48.424;11.258;2023-06-14T02:45:39;95131.31;;;15.20;59.11
25526;BME280;13424;48.424;11.258;2023-06-14T02:48:06;95136.31;;;14.93;61.06
25526;BME280;13424;48.424;11.258;2023-06-14T02:50:32;95131.03;;;14.83;61.38
25526;BME280;13424;48.424;11.258;2023-06-14T02:52:58;95135.38;;;14.68;61.15
25526;BME280;13424;48.424;11.258;2023-06-14T02:55:24;95137.03;;;14.69;61.88
25526;BME280;13424;48.424;11.258;2023-06-14T02:57:50;95136.97;;;13.89;60.78
25526;BME280;13424;48.424;11.258;2023-06-14T03:00:17;95131.81;;;12.71;63.92
25526;BME280;13424;48.424;11.258;2023-06-14T03:02:45;95132.16;;;13.86;61.13
25526;BME280;13424;48.424;11.258;2023-06-14T03:05:11;95138.41;;;14.62;58.40
25526;BME280;13424;48.424;11.258;2023-06-14T03:07:39;95133.69;;;14.83;57.38
25526;BME280;13424;48.424;11.258;2023-06-14T03:10:08;95135.19;;;15.09;56.54
25526;BME280;13424;48.424;11.258;2023-06-14T03:12:35;95134.50;;;15.27;55.99
25526;BME280;13424;48.424;11.258;2023-06-14T03:15:26;95135.72;;;15.40;55.27
25526;BME280;13424;48.424;11.258;2023-06-14T03:17:53;95139.75;;;15.43;56.97
25526;BME280;13424;48.424;11.258;2023-06-14T03:20:20;95147.22;;;15.12;56.69
25526;BME280;13424;48.424;11.258;2023-06-14T03:22:47;95148.69;;;14.94;59.35
25526;BME280;13424;48.424;11.258;2023-06-14T03:25:14;95150.78;;;14.47;60.57
25526;BME280;13424;48.424;11.258;2023-06-14T03:32:02;95157.00;;;14.28;62.80
25526;BME280;13424;48.424;11.258;2023-06-14T03:34:38;95159.09;;;14.36;62.70
25526;BME280;13424;48.424;11.258;2023-06-14T03:37:05;95154.28;;;14.33;62.93
25526;BME280;13424;48.424;11.258;2023-06-14T03:39:31;95160.19;;;14.40;63.19
25526;BME280;13424;48.424;11.258;2023-06-14T03:41:57;95157.50;;;14.35;62.77
25526;BME280;13424;48.424;11.258;2023-06-14T03:44:23;95159.91;;;14.46;62.02
25526;BME280;13424;48.424;11.258;2023-06-14T03:46:50;95167.69;;;14.48;62.83
25526;BME280;13424;48.424;11.258;2023-06-14T03:49:17;95163.16;;;14.28;62.51
25526;BME280;13424;48.424;11.258;2023-06-14T03:51:44;95161.50;;;14.37;62.76
25526;BME280;13424;48.424;11.258;2023-06-14T03:54:11;95161.50;;;14.37;61.73
25526;BME280;13424;48.424;11.258;2023-06-14T03:56:53;95169.28;;;14.49;62.42
25526;BME280;13424;48.424;11.258;2023-06-14T03:59:19;95170.91;;;14.30;62.31
25526;BME280;13424;48.424;11.258;2023-06-14T04:01:46;95176.53;;;14.48;62.32
25526;BME280;13424;48.424;11.258;2023-06-14T04:04:14;95177.81;;;14.61;62.74
25526;BME280;13424;48.424;11.258;2023-06-14T04:06:43;95182.13;;;14.62;63.03
25526;BME280;13424;48.424;11.258;2023-06-14T04:09:10;95184.84;;;14.42;63.53
25526;BME280;13424;48.424;11.258;2023-06-14T04:11:36;95189.69;;;14.40;63.79
25526;BME280;13424;48.424;11.258;2023-06-14T04:14:02;95187.56;;;14.47;63.71
25526;BME280;13424;48.424;11.258;2023-06-14T04:16:29;95191.31;;;14.31;63.98
25526;BME280;13424;48.424;11.258;2023-06-14T04:18:55;95188.03;;;14.64;62.46
25526;BME280;13424;48.424;11.258;2023-06-14T04:21:23;95187.97;;;14.74;63.32
25526;BME280;13424;48.424;11.258;2023-06-14T04:23:52;95187.63;;;14.91;61.76
25526;BME280;13424;48.424;11.258;2023-06-14T04:26:22;95196.94;;;15.09;61.54
25526;BME280;13424;48.424;11.258;2023-06-14T04:28:49;95188.81;;;15.19;61.88
25526;BME280;13424;48.424;11.258;2023-06-14T04:31:51;95195.09;;;15.44;59.59
25526;BME280;13424;48.424;11.258;2023-06-14T04:34:17;95193.72;;;15.85;59.32
25526;BME280;13424;48.424;11.258;2023-06-14T04:36:48;95197.03;;;15.77;60.29
25526;BME280;13424;48.424;11.258;2023-06-14T04:39:20;95194.84;;;15.79;59.52
25526;BME280;13424;48.424;11.258;2023-06-14T04:41:47;95200.09;;;15.95;59.47
25526;BME280;13424;48.424;11.258;2023-06-14T04:44:13;95200.19;;;15.84;60.58
25526;BME280;13424;48.424;11.258;2023-06-14T04:46:45;95197.31;;;15.76;60.36
25526;BME280;13424;48.424;11.258;2023-06-14T04:49:57;95207.97;;;16.44;58.60
25526;BME280;13424;48.424;11.258;2023-06-14T04:52:23;95221.59;;;16.29;57.08
25526;BME280;13424;48.424;11.258;2023-06-14T04:54:53;95219.75;;;16.77;55.20
25526;BME280;13424;48.424;11.258;2023-06-14T04:57:23;95219.00;;;16.71;54.76
25526;BME280;13424;48.424;11.258;2023-06-14T04:59:52;95232.72;;;17.18;53.01
25526;BME280;13424;48.424;11.258;2023-06-14T05:02:24;95236.06;;;17.10;53.17
25526;BME280;13424;48.424;11.258;2023-06-14T05:04:53;95229.38;;;17.26;53.56
25526;BME280;13424;48.424;11.258;2023-06-14T05:07:19;95233.84;;;17.73;53.70
25526;BME280;13424;48.424;11.258;2023-06-14T05:09:46;95236.16;;;17.23;54.16
25526;BME280;13424;48.424;11.258;2023-06-14T05:12:12;95242.75;;;17.69;53.16
25526;BME280;13424;48.424;11.258;2023-06-14T05:14:38;95249.63;;;17.99;53.00
25526;BME280;13424;48.424;11.258;2023-06-14T05:17:09;95247.91;;;19.09;49.74
25526;BME280;13424;48.424;11.258;2023-06-14T05:19:35;95245.81;;;19.84;48.54
25526;BME280;13424;48.424;11.258;2023-06-14T05:22:02;95243.88;;;20.51;47.07
25526;BME280;13424;48.424;11.258;2023-06-14T05:24:28;95243.44;;;20.13;47.39
25526;BME280;13424;48.424;11.258;2023-06-14T05:26:56;95251.00;;;19.80;47.78
25526;BME280;13424;48.424;11.258;2023-06-14T05:29:22;95249.09;;;19.44;49.65
25526;BME280;13424;48.424;11.258;2023-06-14T05:31:48;95253.78;;;19.39;51.05
25526;BME280;13424;48.424;11.258;2023-06-14T05:34:13;95255.13;;;19.14;51.00
25526;BME280;13424;48.424;11.258;2023-06-14T05:36:39;95249.66;;;18.45;50.95
25526;BME280;13424;48.424;11.258;2023-06-14T05:39:37;95265.13;;;18.86;52.29
25526;BME280;13424;48.424;11.258;2023-06-14T05:42:03;95260.97;;;18.14;53.07
25526;BME280;13424;48.424;11.258;2023-06-14T05:44:29;95260.97;;;18.14;53.75
25526;BME280;13424;48.424;11.258;2023-06-14T05:46:55;95253.00;;;18.23;53.21
25526;BME280;13424;48.424;11.258;2023-06-14T05:49:21;95256.59;;;18.19;54.42
25526;BME280;13424;48.424;11.258;2023-06-14T05:51:46;95253.09;;;18.18;53.02
25526;BME280;13424;48.424;11.258;2023-06-14T05:54:13;95265.94;;;18.07;53.52
25526;BME280;13424;48.424;11.258;2023-06-14T05:56:39;95254.56;;;18.43;52.98
25526;BME280;13424;48.424;11.258;2023-06-14T05:59:05;95256.47;;;18.42;53.23
25526;BME280;13424;48.424;11.258;2023-06-14T06:01:30;95263.53;;;18.71;52.74
25526;BME280;13424;48.424;11.258;2023-06-14T06:03:59;95252.22;;;18.83;52.22
25526;BME280;13424;48.424;11.258;2023-06-14T06:06:25;95259.13;;;18.75;51.56
25526;BME280;13424;48.424;11.258;2023-06-14T06:08:51;95262.66;;;18.89;51.95
25526;BME280;13424;48.424;11.258;2023-06-14T06:11:17;95265.63;;;19.29;51.23
25526;BME280;13424;48.424;11.258;2023-06-14T06:13:42;95265.69;;;20.01;50.98
25526;BME280;13424;48.424;11.258;2023-06-14T06:16:08;95271.84;;;19.79;50.09
25526;BME280;13424;48.424;11.258;2023-06-14T06:18:34;95269.63;;;19.82;51.22
25526;BME280;13424;48.424;11.258;2023-06-14T06:21:00;95274.03;;;19.91;51.80
25526;BME280;13424;48.424;11.258;2023-06-14T06:23:26;95266.81;;;19.87;50.22
25526;BME280;13424;48.424;11.258;2023-06-14T06:25:52;95272.25;;;19.87;50.30
25526;BME280;13424;48.424;11.258;2023-06-14T06:28:18;95279.34;;;19.83;50.09
25526;BME280;13424;48.424;11.258;2023-06-14T06:30:43;95275.13;;;20.13;49.66
25526;BME280;13424;48.424;11.258;2023-06-14T06:33:09;95282.78;;;20.86;48.78
25526;BME280;13424;48.424;11.258;2023-06-14T06:35:36;95284.06;;;20.35;48.74
25526;BME280;13424;48.424;11.258;2023-06-14T06:38:02;95283.44;;;20.61;49.23
25526;BME280;13424;48.424;11.258;2023-06-14T06:40:28;95292.16;;;21.20;47.44
25526;BME280;13424;48.424;11.258;2023-06-14T06:42:54;95286.69;;;21.03;50.60
25526;BME280;13424;48.424;11.258;2023-06-14T06:45:20;95295.78;;;21.07;48.21
25526;BME280;13424;48.424;11.258;2023-06-14T06:47:46;95287.94;;;20.97;48.17
25526;BME280;13424;48.424;11.258;2023-06-14T06:50:11;95293.75;;;21.21;47.70
25526;BME280;13424;48.424;11.258;2023-06-14T06:52:37;95293.75;;;21.21;49.09
25526;BME280;13424;48.424;11.258;2023-06-14T06:55:03;95291.06;;;20.81;48.39
25526;BME280;13424;48.424;11.258;2023-06-14T06:57:35;95295.81;;;21.15;46.89
25526;BME280;13424;48.424;11.258;2023-06-14T07:00:01;95294.53;;;21.13;48.34
25526;BME280;13424;48.424;11.258;2023-06-14T07:02:27;95294.00;;;21.33;48.18
25526;BME280;13424;48.424;11.258;2023-06-14T07:04:52;95288.44;;;21.56;48.79
25526;BME280;13424;48.424;11.258;2023-06-14T07:07:18;95295.88;;;22.07;47.20
25526;BME280;13424;48.424;11.258;2023-06-14T07:09:44;95298.94;;;21.40;49.32
25526;BME280;13424;48.424;11.258;2023-06-14T07:12:11;95292.50;;;21.84;50.18
25526;BME280;13424;48.424;11.258;2023-06-14T07:14:37;95299.66;;;21.80;47.60
25526;BME280;13424;48.424;11.258;2023-06-14T07:17:03;95304.63;;;21.95;47.46
25526;BME280;13424;48.424;11.258;2023-06-14T07:19:29;95305.31;;;22.18;48.60
25526;BME280;13424;48.424;11.258;2023-06-14T07:21:56;95309.78;;;22.32;48.34
25526;BME280;13424;48.424;11.258;2023-06-14T07:24:22;95305.59;;;22.60;46.67
25526;BME280;13424;48.424;11.258;2023-06-14T07:26:48;95316.59;;;22.64;46.23
25526;BME280;13424;48.424;11.258;2023-06-14T07:29:14;95319.03;;;22.48;46.85
25526;BME280;13424;48.424;11.258;2023-06-14T07:31:42;95318.56;;;22.37;49.33
25526;BME280;13424;48.424;11.258;2023-06-14T07:34:08;95320.09;;;22.73;48.73
25526;BME280;13424;48.424;11.258;2023-06-14T07:36:34;95317.44;;;23.20;47.99
25526;BME280;13424;48.424;11.258;2023-06-14T07:43:08;95322.50;;;23.30;45.99
25526;BME280;13424;48.424;11.258;2023-06-14T07:45:33;95318.69;;;23.31;45.91
25526;BME280;13424;48.424;11.258;2023-06-14T07:47:59;95319.22;;;23.16;44.80
25526;BME280;13424;48.424;11.258;2023-06-14T07:50:25;95328.09;;;23.33;45.99
25526;BME280;13424;48.424;11.258;2023-06-14T07:52:51;95325.63;;;23.49;44.64
25526;BME280;13424;48.424;11.258;2023-06-14T07:55:17;95325.16;;;23.09;44.34
25526;BME280;13424;48.424;11.258;2023-06-14T07:57:43;95336.75;;;24.15;43.87
25526;BME280;13424;48.424;11.258;2023-06-14T08:00:13;95334.03;;;24.15;45.37
25526;BME280;13424;48.424;11.258;2023-06-14T08:02:44;95332.06;;;24.04;44.79
25526;BME280;13424;48.424;11.258;2023-06-14T08:05:13;95332.03;;;24.33;43.15
25526;BME280;13424;48.424;11.258;2023-06-14T08:07:39;95336.56;;;24.20;43.63
25526;BME280;13424;48.424;11.258;2023-06-14T08:10:07;95342.25;;;24.57;43.63
25526;BME280;13424;48.424;11.258;2023-06-14T08:12:33;95339.94;;;25.13;42.63
25526;BME280;13424;48.424;11.258;2023-06-14T08:15:00;95338.88;;;24.72;44.24
25526;BME280;13424;48.424;11.258;2023-06-14T08:17:26;95340.09;;;24.63;42.87
25526;BME280;13424;48.424;11.258;2023-06-14T08:19:52;95348.06;;;25.01;44.34
25526;BME280;13424;48.424;11.258;2023-06-14T08:22:20;95334.41;;;24.35;44.76
25526;BME280;13424;48.424;11.258;2023-06-14T08:24:47;95346.59;;;24.70;43.70
25526;BME280;13424;48.424;11.258;2023-06-14T08:27:13;95342.66;;;25.13;44.46
25526;BME280;13424;48.424;11.258;2023-06-14T08:29:39;95353.50;;;25.01;43.32
25526;BME280;13424;48.424;11.258;2023-06-14T08:32:06;95355.19;;;24.39;42.31
25526;BME280;13424;48.424;11.258;2023-06-14T08:34:32;95352.13;;;24.95;40.61
25526;BME280;13424;48.424;11.258;2023-06-14T08:40:34;95358.19;;;24.67;43.38
25526;BME280;13424;48.424;11.258;2023-06-14T08:43:02;95363.59;;;25.33;40.17
25526;BME280;13424;48.424;11.258;2023-06-14T08:45:28;95360.69;;;25.63;39.36
25526;BME280;13424;48.424;11.258;2023-06-14T08:47:54;95364.16;;;25.27;40.50
25526;BME280;13424;48.424;11.258;2023-06-14T08:50:26;95360.22;;;24.70;39.57
25526;BME280;13424;48.424;11.258;2023-06-14T08:52:58;95371.56;;;24.93;40.76
25526;BME280;13424;48.424;11.258;2023-06-14T08:55:28;95370.41;;;25.27;41.58
25526;BME280;13424;48.424;11.258;2023-06-14T08:57:58;95359.06;;;25.50;40.13
25526;BME280;13424;48.424;11.258;2023-06-14T09:00:26;95365.34;;;25.75;41.32
25526;BME280;13424;48.424;11.258;2023-06-14T09:02:58;95368.41;;;25.37;40.09
25526;BME280;13424;48.424;11.258;2023-06-14T09:05:28;95368.00;;;25.71;39.44
25526;BME280;13424;48.424;11.258;2023-06-14T09:08:28;95369.22;;;25.04;39.96
25526;BME280;13424;48.424;11.258;2023-06-14T09:10:56;95366.88;;;24.82;39.84
25526;BME280;13424;48.424;11.258;2023-06-14T09:13:22;95368.06;;;25.38;39.56
25526;BME280;13424;48.424;11.258;2023-06-14T09:15:54;95377.94;;;25.43;42.56
25526;BME280;13424;48.424;11.258;2023-06-14T09:18:20;95369.75;;;26.40;42.21
25526;BME280;13424;48.424;11.258;2023-06-14T09:20:46;95374.09;;;26.17;38.78
25526;BME280;13424;48.424;11.258;2023-06-14T09:23:13;95364.44;;;26.60;38.98
25526;BME280;13424;48.424;11.258;2023-06-14T09:25:43;95363.81;;;27.07;38.82
25526;BME280;13424;48.424;11.258;2023-06-14T09:28:11;95376.47;;;26.43;37.80
25526;BME280;13424;48.424;11.258;2023-06-14T09:30:38;95372.03;;;26.26;36.93
25526;BME280;13424;48.424;11.258;2023-06-14T09:33:04;95376.13;;;26.32;36.92
25526;BME280;13424;48.424;11.258;2023-06-14T09:35:31;95377.56;;;25.77;37.24
25526;BME280;13424;48.424;11.258;2023-06-14T09:37:57;95377.06;;;26.24;38.36
25526;BME280;13424;48.424;11.258;2023-06-14T09:40:25;95373.91;;;26.90;37.02
25526;BME280;13424;48.424;11.258;2023-06-14T09:42:51;95375.00;;;26.74;37.42
25526;BME280;13424;48.424;11.258;2023-06-14T09:45:17;95364.63;;;27.23;35.87
25526;BME280;13424;48.424;11.258;2023-06-14T09:47:49;95373.41;;;26.20;37.58
25526;BME280;13424;48.424;11.258;2023-06-14T09:50:15;95373.63;;;26.27;37.17
25526;BME280;13424;48.424;11.258;2023-06-14T09:52:43;95375.00;;;26.21;36.33
25526;BME280;13424;48.424;11.258;2023-06-14T09:55:13;95383.00;;;26.02;34.75
25526;BME280;13424;48.424;11.258;2023-06-14T09:57:41;95377.75;;;26.09;35.56
25526;BME280;13424;48.424;11.258;2023-06-14T10:00:08;95374.59;;;26.07;36.23
25526;BME280;13424;48.424;11.258;2023-06-14T10:02:38;95374.31;;;26.24;36.31
25526;BME280;13424;48.424;11.258;2023-06-14T10:05:07;95372.94;;;26.42;34.82
25526;BME280;13424;48.424;11.258;2023-06-14T10:10:13;95374.75;;;26.26;36.00
25526;BME280;13424;48.424;11.258;2023-06-14T10:12:40;95373.84;;;26.34;36.67
25526;BME280;13424;48.424;11.258;2023-06-14T10:15:09;95378.53;;;27.02;34.63
25526;BME280;13424;48.424;11.258;2023-06-14T10:17:43;95378.41;;;27.11;34.78
25526;BME280;13424;48.424;11.258;2023-06-14T10:20:35;95372.88;;;25.08;34.90
25526;BME280;13424;48.424;11.258;2023-06-14T10:23:21;95380.72;;;25.10;36.61
25526;BME280;13424;48.424;11.258;2023-06-14T10:25:54;95376.38;;;25.91;34.18
25526;BME280;13424;48.424;11.258;2023-06-14T10:28:22;95377.88;;;25.88;36.70
25526;BME280;13424;48.424;11.258;2023-06-14T10:31:08;95377.31;;;25.95;36.65
25526;BME280;13424;48.424;11.258;2023-06-14T10:33:39;95373.13;;;27.18;34.70
25526;BME280;13424;48.424;11.258;2023-06-14T10:36:28;95368.75;;;26.61;33.64
25526;BME280;13424;48.424;11.258;2023-06-14T10:39:10;95368.13;;;27.83;33.60
25526;BME280;13424;48.424;11.258;2023-06-14T10:41:39;95369.31;;;26.94;34.20
25526;BME280;13424;48.424;11.258;2023-06-14T10:46:40;95362.44;;;27.92;35.57
25526;BME280;13424;48.424;11.258;2023-06-14T10:49:11;95367.19;;;27.47;34.83
25526;BME280;13424;48.424;11.258;2023-06-14T10:51:42;95371.25;;;27.38;33.23
25526;BME280;13424;48.424;11.258;2023-06-14T10:54:21;95369.88;;;27.44;34.18
25526;BME280;13424;48.424;11.258;2023-06-14T10:56:54;95373.47;;;27.48;35.46
25526;BME280;13424;48.424;11.258;2023-06-14T10:59:20;95371.47;;;27.92;33.92
25526;BME280;13424;48.424;11.258;2023-06-14T11:04:51;95357.44;;;26.75;35.60
25526;BME280;13424;48.424;11.258;2023-06-14T11:07:47;95356.53;;;27.42;34.08
25526;BME280;13424;48.424;11.258;2023-06-14T11:13:04;95360.19;;;26.47;34.68
25526;BME280;13424;48.424;11.258;2023-06-14T11:15:37;95361.03;;;25.98;36.37
25526;BME280;13424;48.424;11.258;2023-06-14T11:18:05;95367.50;;;26.18;34.75
25526;BME280;13424;48.424;11.258;2023-06-14T11:20:33;95373.50;;;25.50;36.38
25526;BME280;13424;48.424;11.258;2023-06-14T11:23:00;95362.28;;;25.88;35.97
25526;BME280;13424;48.424;11.258;2023-06-14T11:25:26;95363.19;;;26.05;35.36
25526;BME280;13424;48.424;11.258;2023-06-14T11:27:53;95371.56;;;25.51;34.45
25526;BME280;13424;48.424;11.258;2023-06-14T11:30:20;95359.78;;;25.71;34.43
25526;BME280;13424;48.424;11.258;2023-06-14T11:32:47;95364.94;;;28.32;34.13
25526;BME280;13424;48.424;11.258;2023-06-14T11:35:13;95367.44;;;28.76;35.49
25526;BME280;13424;48.424;11.258;2023-06-14T11:37:39;95364.25;;;28.74;33.96
25526;BME280;13424;48.424;11.258;2023-06-14T11:40:08;95362.81;;;27.59;34.51
25526;BME280;13424;48.424;11.258;2023-06-14T11:42:40;95359.09;;;27.51;35.03
25526;BME280;13424;48.424;11.258;2023-06-14T11:45:11;95357.19;;;28.02;33.61
25526;BME280;13424;48.424;11.258;2023-06-14T11:47:40;95361.56;;;28.58;33.23
25526;BME280;13424;48.424;11.258;2023-06-14T11:50:08;95353.78;;;28.60;32.83
25526;BME280;13424;48.424;11.258;2023-06-14T11:52:36;95353.63;;;29.11;33.75
25526;BME280;13424;48.424;11.258;2023-06-14T11:55:03;95356.47;;;29.60;32.06
25526;BME280;13424;48.424;11.258;2023-06-14T11:57:39;95343.53;;;29.61;33.74
25526;BME280;13424;48.424;11.258;2023-06-14T12:00:08;95355.41;;;29.91;33.43
25526;BME280;13424;48.424;11.258;2023-06-14T12:02:38;95349.28;;;29.10;33.52
25526;BME280;13424;48.424;11.258;2023-06-14T12:05:06;95340.25;;;28.51;34.08
25526;BME280;13424;48.424;11.258;2023-06-14T12:07:39;95340.59;;;27.64;34.22
25526;BME280;13424;48.424;11.258;2023-06-14T12:10:07;95340.34;;;27.85;35.04
25526;BME280;13424;48.424;11.258;2023-06-14T12:12:43;95349.22;;;28.13;35.59
25526;BME280;13424;48.424;11.258;2023-06-14T12:15:09;95349.03;;;28.96;33.71
25526;BME280;13424;48.424;11.258;2023-06-14T12:17:38;95347.78;;;28.54;35.06
25526;BME280;13424;48.424;11.258;2023-06-14T12:20:12;95356.59;;;29.02;35.35
25526;BME280;13424;48.424;11.258;2023-06-14T12:22:51;95350.28;;;28.44;33.97
25526;BME280;13424;48.424;11.258;2023-06-14T12:25:35;95346.91;;;28.50;32.61
25526;BME280;13424;48.424;11.258;2023-06-14T12:28:11;95344.75;;;28.79;32.71
25526;BME280;13424;48.424;11.258;2023-06-14T12:30:37;95345.22;;;27.91;33.62
25526;BME280;13424;48.424;11.258;2023-06-14T12:33:04;95353.53;;;28.88;34.26
25526;BME280;13424;48.424;11.258;2023-06-14T12:35:30;95344.63;;;28.52;33.99
25526;BME280;13424;48.424;11.258;2023-06-14T12:37:56;95349.50;;;27.73;32.99
25526;BME280;13424;48.424;11.258;2023-06-14T12:40:22;95335.13;;;27.64;32.67
25526;BME280;13424;48.424;11.258;2023-06-14T12:42:48;95345.50;;;28.76;33.34
25526;BME280;13424;48.424;11.258;2023-06-14T12:45:14;95350.81;;;29.07;33.20
25526;BME280;13424;48.424;11.258;2023-06-14T12:47:40;95339.25;;;28.40;34.51
25526;BME280;13424;48.424;11.258;2023-06-14T12:50:06;95335.44;;;27.74;33.91
25526;BME280;13424;48.424;11.258;2023-06-14T12:52:32;95341.34;;;28.66;32.52
25526;BME280;13424;48.424;11.258;2023-06-14T12:55:03;95347.72;;;29.09;32.92
25526;BME280;13424;48.424;11.258;2023-06-14T12:57:30;95350.50;;;29.12;33.10
25526;BME280;13424;48.424;11.258;2023-06-14T12:59:56;95345.09;;;28.03;33.36
25526;BME280;13424;48.424;11.258;2023-06-14T13:02:21;95357.72;;;28.43;32.87
25526;BME280;13424;48.424;11.258;2023-06-14T13:04:55;95344.75;;;28.40;32.23
25526;BME280;13424;48.424;11.258;2023-06-14T13:07:22;95358.44;;;28.59;33.58
25526;BME280;13424;48.424;11.258;2023-06-14T13:09:48;95352.41;;;28.70;31.65
25526;BME280;13424;48.424;11.258;2023-06-14T13:12:14;95348.06;;;28.49;32.42
25526;BME280;13424;48.424;11.258;2023-06-14T13:14:40;95347.03;;;28.03;33.82
25526;BME280;13424;48.424;11.258;2023-06-14T13:17:09;95345.81;;;28.35;33.48
25526;BME280;13424;48.424;11.258;2023-06-14T13:23:42;95351.31;;;28.20;34.58
25526;BME280;13424;48.424;11.258;2023-06-14T13:26:08;95350.88;;;27.35;34.44
25526;BME280;13424;48.424;11.258;2023-06-14T13:28:34;95344.22;;;26.36;36.33
25526;BME280;13424;48.424;11.258;2023-06-14T13:31:00;95344.47;;;26.19;36.69
25526;BME280;13424;48.424;11.258;2023-06-14T13:33:27;95351.50;;;26.44;36.65